Time;durP1;ratioP1;P1;durP2;ratioP2;P2;SDS_P1;SDS_P2;PMS_P1;PMS_P2;Temp;Humidity;BMP_temperature;BMP_pressure;BME280_temperature;BME280_humidity;BME280_pressure;Samples;Min_cycle;Max_cycle;Signal;HPM_P1;HPM_P2
2021/09/27 00:00:51;;;;;;;;;10.00;8.25;;;;;22.28;57.21;101059.66;5079047;27;46183;-54
2021/09/27 00:03:17;;;;;;;;;8.25;7.75;;;;;22.26;57.01;101053.63;5079262;27;45663;-55
2021/09/27 00:05:42;;;;;;;;;7.50;7.00;;;;;22.27;57.02;101057.97;5079239;27;45183;-56
2021/09/27 00:08:08;;;;;;;;;8.50;8.00;;;;;22.27;57.12;101056.16;5079441;27;45310;-55
2021/09/27 00:10:42;;;;;;;;;2.75;2.75;;;;;22.27;57.24;101058.78;5078962;27;46476;-53
2021/09/27 00:13:09;;;;;;;;;8.25;8.00;;;;;22.27;57.31;101050.88;5079228;27;45426;-56
2021/09/27 00:15:42;;;;;;;;;8.00;8.00;;;;;22.28;57.18;101049.94;5079190;27;45758;-53
2021/09/27 00:18:08;;;;;;;;;6.75;6.50;;;;;22.27;57.11;101052.69;5079347;27;45587;-53
2021/09/27 00:20:36;;;;;;;;;8.00;7.00;;;;;22.27;57.02;101058.78;5078897;27;47602;-53
2021/09/27 00:23:02;;;;;;;;;7.00;7.00;;;;;22.28;57.10;101049.09;5078917;27;45695;-55
2021/09/27 00:25:29;;;;;;;;;9.50;8.75;;;;;22.28;56.91;101049.09;5079008;27;45348;-53
2021/09/27 00:27:54;;;;;;;;;8.75;7.00;;;;;22.28;56.96;101038.53;5079562;27;45310;-54
2021/09/27 00:30:20;;;;;;;;;7.75;5.75;;;;;22.27;57.05;101031.56;5078970;27;45386;-52
2021/09/27 00:32:46;;;;;;;;;9.00;7.75;;;;;22.27;56.86;101047.41;5078781;28;45308;-53
2021/09/27 00:35:19;;;;;;;;;9.25;8.00;;;;;22.24;56.98;101032.59;5078764;27;45398;-51
2021/09/27 00:37:44;;;;;;;;;7.25;6.75;;;;;22.24;57.24;101044.00;5079189;27;45298;-53
2021/09/27 00:40:14;;;;;;;;;7.00;5.25;;;;;22.26;56.93;101045.69;5078717;27;45565;-52
2021/09/27 00:42:40;;;;;;;;;5.00;5.00;;;;;22.26;56.99;101041.28;5078660;27;45767;-54
2021/09/27 00:45:08;;;;;;;;;6.50;6.00;;;;;22.26;56.86;101036.00;5078895;27;45510;-53
2021/09/27 00:47:33;;;;;;;;;8.25;6.25;;;;;22.26;57.11;101037.78;5078784;27;45323;-53
2021/09/27 00:49:59;;;;;;;;;8.00;7.00;;;;;22.26;56.96;101038.63;5078511;27;45707;-52
2021/09/27 00:52:26;;;;;;;;;6.75;6.00;;;;;22.26;57.15;101036.00;5078573;27;45420;-53
2021/09/27 00:54:53;;;;;;;;;8.75;8.00;;;;;22.27;57.00;101034.19;5078857;27;45378;-56
2021/09/27 00:57:23;;;;;;;;;8.50;7.00;;;;;22.27;57.00;101036.84;5078830;27;45326;-55
2021/09/27 00:59:52;;;;;;;;;8.50;7.00;;;;;22.27;57.03;101034.19;5078141;27;46539;-54
2021/09/27 01:02:18;;;;;;;;;7.50;7.50;;;;;22.23;57.33;101026.44;5078389;27;45751;-52
2021/09/27 01:04:44;;;;;;;;;5.00;5.00;;;;;22.24;57.46;101022.03;5078390;27;45319;-53
2021/09/27 01:07:31;;;;;;;;;7.50;6.25;;;;;22.27;57.00;101021.00;5078553;27;45362;-53
2021/09/27 01:10:03;;;;;;;;;8.00;6.75;;;;;22.27;56.98;101021.00;5078541;27;46330;-54
2021/09/27 01:13:02;;;;;;;;;7.75;7.75;;;;;22.26;57.12;101016.66;5078321;27;45465;-53
2021/09/27 01:15:43;;;;;;;;;8.25;7.25;;;;;22.26;56.92;101006.09;5078342;28;45416;-53
2021/09/27 01:18:24;;;;;;;;;9.25;7.50;;;;;22.23;56.97;101010.59;5078520;28;45451;-55
2021/09/27 01:21:14;;;;;;;;;7.75;7.75;;;;;22.24;56.89;101006.19;5078038;27;46229;-53
2021/09/27 01:24:01;;;;;;;;;6.50;5.00;;;;;22.24;56.92;101011.47;5077907;28;45197;-51
2021/09/27 01:26:42;;;;;;;;;6.50;6.50;;;;;22.23;57.02;101007.97;5078433;27;45475;-54
2021/09/27 01:29:21;;;;;;;;;6.25;5.25;;;;;22.22;57.10;101008.91;5076910;28;45632;-53
2021/09/27 01:32:04;;;;;;;;;6.00;6.00;;;;;22.21;57.12;101009.00;5077914;27;45433;-55
2021/09/27 01:34:45;;;;;;;;;5.75;5.75;;;;;22.20;57.16;101016.09;5077830;27;45770;-53
2021/09/27 01:37:28;;;;;;;;;11.00;7.25;;;;;22.21;57.07;101007.19;5077839;27;45331;-54
2021/09/27 01:40:22;;;;;;;;;7.50;6.50;;;;;22.20;56.91;101007.31;5078081;27;45314;-54
2021/09/27 01:43:00;;;;;;;;;7.00;7.00;;;;;22.21;56.97;101007.19;5077620;28;46314;-53
2021/09/27 01:45:34;;;;;;;;;8.75;7.00;;;;;22.20;57.17;101000.25;5077861;27;45706;-50
2021/09/27 01:48:11;;;;;;;;;9.50;8.25;;;;;22.20;57.14;100999.38;5077837;27;45505;-51
2021/09/27 01:51:03;;;;;;;;;6.25;6.25;;;;;22.20;57.16;101002.03;5077710;27;45230;-56
2021/09/27 01:53:37;;;;;;;;;8.50;6.50;;;;;22.20;57.05;100996.75;5077847;28;45465;-52
2021/09/27 01:56:59;;;;;;;;;6.25;6.25;;;;;22.19;57.10;100992.41;5077608;27;45292;-54
2021/09/27 01:59:46;;;;;;;;;8.75;8.00;;;;;22.18;57.01;100983.66;5032782;27;45437;-51
2021/09/27 02:02:29;;;;;;;;;7.50;6.25;;;;;22.18;57.27;100974.88;5077673;28;45403;-53
2021/09/27 02:05:16;;;;;;;;;6.50;6.50;;;;;22.19;57.12;100974.78;5076671;27;45476;-53
2021/09/27 02:07:55;;;;;;;;;9.25;7.50;;;;;22.18;57.11;100965.16;5077390;28;45433;-54
2021/09/27 02:10:28;;;;;;;;;6.75;6.75;;;;;22.17;56.91;100968.75;5075955;28;45467;-55
2021/09/27 02:13:22;;;;;;;;;7.00;7.00;;;;;22.16;57.07;100967.03;5077629;28;45309;-53
2021/09/27 02:15:53;;;;;;;;;8.25;7.00;;;;;22.17;57.13;100963.47;5066134;28;45488;-49
2021/09/27 02:18:28;;;;;;;;;7.75;7.75;;;;;22.16;56.72;100967.03;5092798;27;45717;-55
2021/09/27 02:21:05;;;;;;;;;7.00;7.00;;;;;22.16;57.24;100967.03;5077465;27;45381;-52
2021/09/27 02:23:44;;;;;;;;;6.25;6.25;;;;;22.16;57.03;100967.03;5077739;27;45200;-54
2021/09/27 02:26:10;;;;;;;;;8.00;8.00;;;;;22.16;57.07;100961.75;5076786;27;46422;-54
2021/09/27 02:28:36;;;;;;;;;6.75;6.75;;;;;22.16;57.27;100969.69;5077189;27;45844;-53
2021/09/27 02:31:05;;;;;;;;;6.00;6.00;;;;;22.15;57.13;100977.72;5077373;27;45215;-53
2021/09/27 02:33:39;;;;;;;;;7.50;5.00;;;;;22.16;56.88;100982.06;5077669;27;45516;-54
2021/09/27 02:36:28;;;;;;;;;8.50;7.75;;;;;22.15;56.91;100980.34;5076879;27;45552;-54
2021/09/27 02:39:13;;;;;;;;;10.50;7.00;;;;;22.15;56.99;100970.63;5092523;27;45394;-53
2021/09/27 02:42:03;;;;;;;;;8.50;6.25;;;;;22.16;57.17;100966.22;5077123;27;45357;-57
2021/09/27 02:44:29;;;;;;;;;6.50;6.50;;;;;22.14;57.11;100968.94;5077178;28;45639;-53
2021/09/27 02:46:56;;;;;;;;;10.50;9.75;;;;;22.12;57.07;100960.25;5076701;28;45356;-56
2021/09/27 02:49:41;;;;;;;;;7.00;6.25;;;;;22.15;57.18;100964.50;5076813;27;45844;-55
2021/09/27 02:52:06;;;;;;;;;6.75;6.50;;;;;22.14;57.02;100963.66;5076900;27;45380;-55
2021/09/27 02:55:00;;;;;;;;;6.25;5.25;;;;;22.15;57.33;100965.34;5077251;27;45899;-51
2021/09/27 02:57:45;;;;;;;;;8.75;8.75;;;;;22.15;57.01;100962.72;5075098;27;46845;-54
2021/09/27 03:00:13;;;;;;;;;6.00;6.00;;;;;22.14;57.04;100965.44;5076378;27;45865;-54
2021/09/27 03:02:58;;;;;;;;;7.00;6.50;;;;;22.14;57.11;100965.44;5076854;28;45354;-58
2021/09/27 03:05:53;;;;;;;;;7.75;7.00;;;;;22.13;56.99;100959.31;5076732;27;45425;-57
2021/09/27 03:08:32;;;;;;;;;8.00;8.00;;;;;22.13;56.96;100951.38;5076444;27;45637;-58
2021/09/27 03:11:22;;;;;;;;;7.50;7.50;;;;;22.13;57.13;100961.09;5076893;27;45761;-56
2021/09/27 03:14:11;;;;;;;;;6.75;6.75;;;;;22.12;57.20;100967.31;5076645;27;45541;-57
2021/09/27 03:16:58;;;;;;;;;8.00;8.00;;;;;22.11;56.95;100966.47;5080381;27;45366;-53
2021/09/27 03:19:35;;;;;;;;;6.50;6.25;;;;;22.12;57.01;100967.31;5095451;27;45329;-56
2021/09/27 03:22:12;;;;;;;;;10.25;9.00;;;;;22.12;57.28;100957.59;5080043;27;45917;-58
2021/09/27 03:24:48;;;;;;;;;6.00;6.00;;;;;22.10;57.16;100948.94;5080030;27;45380;-58
2021/09/27 03:27:13;;;;;;;;;9.50;8.75;;;;;22.09;56.88;100955.16;5080138;27;45289;-56
2021/09/27 03:30:02;;;;;;;;;9.00;7.33;;;;;22.09;57.11;100961.28;5079733;27;46186;-58
2021/09/27 03:32:38;;;;;;;;;8.25;8.25;;;;;22.09;56.90;100966.56;5079680;27;45324;-54
2021/09/27 03:35:13;;;;;;;;;8.50;7.50;;;;;22.09;57.22;100963.09;5080165;27;45330;-53
2021/09/27 03:37:46;;;;;;;;;9.75;9.00;;;;;22.09;57.02;100960.44;5079999;27;45479;-55
2021/09/27 03:40:28;;;;;;;;;8.50;7.25;;;;;22.09;56.91;100960.44;5095164;27;47282;-55
2021/09/27 03:43:15;;;;;;;;;10.25;8.75;;;;;22.09;56.98;100961.28;5094175;27;45882;-55
2021/09/27 03:45:54;;;;;;;;;7.00;6.00;;;;;22.08;57.09;100975.41;5079701;27;45465;-54
2021/09/27 03:48:51;;;;;;;;;9.50;8.00;;;;;22.07;57.11;100972.88;5079635;27;45263;-57
2021/09/27 03:51:27;;;;;;;;;6.25;6.25;;;;;22.08;56.86;100979.88;5079452;27;47305;-54
2021/09/27 03:54:01;;;;;;;;;8.25;8.25;;;;;22.08;57.22;100972.78;5079511;27;45369;-56
2021/09/27 03:56:32;;;;;;;;;9.75;8.50;;;;;22.07;57.16;100963.16;5078177;28;45496;-53
2021/09/27 03:59:14;;;;;;;;;6.25;6.25;;;;;22.06;57.07;100965.91;5079897;27;45410;-52
2021/09/27 04:01:54;;;;;;;;;8.00;8.00;;;;;22.07;57.14;100978.16;5079189;27;46534;-52
2021/09/27 04:04:37;;;;;;;;;7.75;7.25;;;;;22.07;56.99;100970.25;5079146;27;45836;-53
2021/09/27 04:07:26;;;;;;;;;8.75;6.25;;;;;22.06;56.97;100971.19;5095349;27;45431;-53
2021/09/27 04:10:07;;;;;;;;;10.25;7.50;;;;;22.08;56.80;100974.59;5078242;28;45590;-54
2021/09/27 04:12:33;;;;;;;;;8.25;8.25;;;;;22.07;57.26;100975.53;5079526;27;45436;-55
2021/09/27 04:15:01;;;;;;;;;7.50;7.25;;;;;22.08;56.84;100966.66;5079175;27;45289;-51
2021/09/27 04:17:46;;;;;;;;;10.50;8.25;;;;;22.08;56.92;100966.66;5079288;27;45345;-54
2021/09/27 04:20:24;;;;;;;;;7.00;6.50;;;;;22.09;57.15;100973.66;5079486;27;45413;-57
2021/09/27 04:23:08;;;;;;;;;8.00;8.00;;;;;22.07;56.88;100973.72;5078973;27;46600;-58
2021/09/27 04:26:02;;;;;;;;;6.50;6.50;;;;;22.06;56.77;100977.28;5079166;28;45401;-53
2021/09/27 04:29:03;;;;;;;;;7.50;6.75;;;;;22.07;56.73;100960.53;5059048;27;45404;-59
2021/09/27 04:31:40;;;;;;;;;8.00;8.00;;;;;22.06;56.74;100956.19;5055900;27;45461;-53
2021/09/27 04:34:29;;;;;;;;;7.25;6.00;;;;;22.06;56.78;100955.34;5079214;28;45255;-57
2021/09/27 04:36:57;;;;;;;;;8.00;8.00;;;;;22.08;56.63;100959.59;5078752;27;45916;-56
2021/09/27 04:39:26;;;;;;;;;8.00;7.00;;;;;22.06;56.75;100950.91;5079122;28;46003;-55
2021/09/27 04:42:20;;;;;;;;;6.50;6.25;;;;;22.06;56.84;100961.47;5079112;27;45584;-54
2021/09/27 04:45:33;;;;;;;;;6.75;6.75;;;;;22.05;56.88;100957.13;5078536;27;47241;-54
2021/09/27 04:48:17;;;;;;;;;6.00;6.00;;;;;22.04;56.55;100952.81;5069230;27;45233;-55
2021/09/27 04:50:57;;;;;;;;;7.25;7.00;;;;;22.04;56.47;100951.94;5078629;27;45308;-56
2021/09/27 04:53:41;;;;;;;;;7.25;7.25;;;;;22.03;56.75;100937.91;5078802;27;45475;-54
2021/09/27 04:56:29;;;;;;;;;7.00;7.00;;;;;22.02;56.95;100932.72;5078801;27;45362;-52
2021/09/27 04:59:07;;;;;;;;;2.00;0.25;;;;;22.04;56.67;100941.38;5078398;27;45499;-54
2021/09/27 05:01:56;;;;;;;;;4.75;4.50;;;;;22.02;56.66;100940.63;5078263;27;45272;-56
2021/09/27 05:05:06;;;;;;;;;6.50;5.50;;;;;22.03;56.65;100934.41;5078541;27;45576;-54
2021/09/27 05:08:08;;;;;;;;;7.00;7.00;;;;;22.01;56.51;100926.59;5078074;28;46969;-56
2021/09/27 05:10:58;;;;;;;;;9.00;6.00;;;;;22.01;56.53;100936.28;5078181;28;45440;-53
2021/09/27 05:13:32;;;;;;;;;6.25;6.25;;;;;22.00;56.42;100934.59;5078492;27;45392;-53
2021/09/27 05:16:31;;;;;;;;;6.00;6.00;;;;;21.99;56.35;100920.56;5078530;27;45275;-53
2021/09/27 05:19:15;;;;;;;;;8.75;6.00;;;;;21.97;56.65;100913.69;5078025;28;46373;-55
2021/09/27 05:22:04;;;;;;;;;6.25;6.25;;;;;21.96;56.45;100922.53;5078040;28;45347;-56
2021/09/27 05:25:00;;;;;;;;;7.00;7.00;;;;;21.96;56.44;100912.81;5078112;27;45423;-55
2021/09/27 05:27:44;;;;;;;;;8.00;6.25;;;;;21.96;56.47;100910.19;5078023;28;45227;-56
2021/09/27 05:30:37;;;;;;;;;9.25;8.00;;;;;21.95;56.65;100899.72;5078128;28;45675;-53
2021/09/27 05:33:27;;;;;;;;;8.50;6.75;;;;;21.93;56.77;100908.56;5078038;28;45417;-52
2021/09/27 05:36:12;;;;;;;;;6.50;6.50;;;;;21.93;56.67;100919.13;5078062;27;45402;-52
2021/09/27 05:38:52;;;;;;;;;7.50;6.25;;;;;21.93;56.40;100921.78;5077181;27;45585;-55
2021/09/27 05:41:41;;;;;;;;;10.00;8.50;;;;;21.94;56.54;100933.16;5092343;27;45756;-56
2021/09/27 05:44:16;;;;;;;;;8.00;6.50;;;;;21.95;56.46;100928.75;5078043;27;45620;-53
2021/09/27 05:46:59;;;;;;;;;6.50;6.25;;;;;21.94;56.41;100922.59;5077939;27;45322;-54
2021/09/27 05:49:51;;;;;;;;;8.00;7.00;;;;;21.93;56.52;100903.31;5078052;27;45358;-53
2021/09/27 05:52:25;;;;;;;;;7.00;7.00;;;;;21.93;56.50;100907.75;5077672;27;45448;-51
2021/09/27 05:54:56;;;;;;;;;8.50;7.00;;;;;21.92;56.63;100906.88;5077760;27;45931;-54
2021/09/27 05:57:45;;;;;;;;;7.75;7.75;;;;;21.91;56.41;100904.34;5077552;27;45222;-54
2021/09/27 06:00:44;;;;;;;;;6.00;6.00;;;;;21.92;56.38;100900.75;5077978;27;45520;-52
2021/09/27 06:03:21;;;;;;;;;5.75;5.75;;;;;21.92;56.48;100906.88;5071916;27;45337;-55
2021/09/27 06:05:56;;;;;;;;;7.25;5.00;;;;;21.92;56.54;100901.59;5077271;28;45219;-53
2021/09/27 06:08:38;;;;;;;;;6.75;6.00;;;;;21.93;56.67;100918.31;5093022;27;45420;-56
2021/09/27 06:11:26;;;;;;;;;6.75;6.75;;;;;21.92;56.36;100906.88;5077575;27;45417;-52
2021/09/27 06:13:53;;;;;;;;;6.50;6.50;;;;;21.93;56.43;100900.66;5077088;27;46233;-52
2021/09/27 06:16:33;;;;;;;;;6.50;6.00;;;;;21.93;56.53;100936.78;5077236;27;45738;-56
2021/09/27 06:19:15;;;;;;;;;6.25;6.00;;;;;21.93;56.42;100937.59;5077300;27;45401;-54
2021/09/27 06:21:40;;;;;;;;;7.00;5.25;;;;;21.94;56.70;100941.06;5077819;27;45235;-55
2021/09/27 06:24:13;;;;;;;;;8.67;8.00;;;;;21.95;56.60;100941.94;5076801;27;45311;-55
2021/09/27 06:26:47;;;;;;;;;6.00;4.75;;;;;21.95;56.66;100953.34;5077441;27;45727;-52
2021/09/27 06:29:46;;;;;;;;;6.50;6.50;;;;;21.94;56.45;100946.34;5077268;27;45319;-55
2021/09/27 06:32:32;;;;;;;;;6.75;5.75;;;;;21.95;56.53;100942.78;5035804;27;45659;-58
2021/09/27 06:35:05;;;;;;;;;5.00;5.00;;;;;21.94;56.52;100938.44;5076943;28;45399;-53
2021/09/27 06:37:30;;;;;;;;;6.00;6.00;;;;;21.96;56.38;100925.16;5076778;27;45749;-54
2021/09/27 06:39:56;;;;;;;;;6.50;6.50;;;;;21.96;56.47;100938.38;5076920;27;45353;-56
2021/09/27 06:42:22;;;;;;;;;5.25;5.25;;;;;21.95;56.35;100932.22;5077131;27;45389;-56
2021/09/27 06:44:47;;;;;;;;;8.00;6.25;;;;;21.97;56.39;100934.78;5076642;27;45545;-56
2021/09/27 06:47:14;;;;;;;;;5.00;5.00;;;;;21.96;56.48;100931.28;5077028;27;45691;-55
2021/09/27 06:49:40;;;;;;;;;8.25;5.25;;;;;21.98;56.29;100949.69;5076828;28;45307;-56
2021/09/27 06:52:06;;;;;;;;;5.50;5.50;;;;;21.98;56.42;100954.97;5076880;27;45565;-53
2021/09/27 06:54:31;;;;;;;;;7.00;5.00;;;;;21.99;56.39;100954.03;5076425;27;45397;-56
2021/09/27 06:56:59;;;;;;;;;8.50;6.00;;;;;21.98;56.47;100942.59;5076524;27;45410;-56
2021/09/27 06:59:25;;;;;;;;;5.25;5.25;;;;;21.99;56.54;100922.34;5076533;28;45271;-54
2021/09/27 07:01:50;;;;;;;;;5.25;5.25;;;;;21.98;56.35;100918.03;5076897;27;45219;-55
2021/09/27 07:04:16;;;;;;;;;6.50;6.50;;;;;21.99;56.36;100922.34;5076309;28;46488;-53
2021/09/27 07:06:41;;;;;;;;;5.25;5.00;;;;;21.98;56.32;100915.38;5076791;27;45430;-53
2021/09/27 07:09:07;;;;;;;;;7.25;7.25;;;;;21.99;56.25;100927.63;5076535;28;45421;-55
2021/09/27 07:11:32;;;;;;;;;7.00;7.00;;;;;21.98;56.54;100931.22;5076703;28;45327;-56
2021/09/27 07:13:58;;;;;;;;;6.00;6.00;;;;;21.98;56.54;100934.69;5076181;27;51706;-55
2021/09/27 07:16:23;;;;;;;;;6.25;6.25;;;;;21.98;56.33;100928.56;5076303;27;45336;-56
2021/09/27 07:18:49;;;;;;;;;8.25;7.25;;;;;22.00;56.30;100931.94;5092214;27;45432;-57
2021/09/27 07:21:15;;;;;;;;;6.75;5.75;;;;;21.98;56.75;100934.69;5076892;27;45745;-53
2021/09/27 07:23:40;;;;;;;;;6.00;6.00;;;;;22.00;56.48;100938.09;5076443;27;45393;-56
2021/09/27 07:26:13;;;;;;;;;6.50;6.50;;;;;22.00;56.34;100937.22;5076154;27;45402;-54
2021/09/27 07:28:39;;;;;;;;;6.50;5.75;;;;;22.00;56.28;100926.66;5076372;27;45417;-55
2021/09/27 07:31:06;;;;;;;;;7.50;6.75;;;;;22.02;56.23;100940.63;5076568;27;45541;-55
2021/09/27 07:33:33;;;;;;;;;8.00;5.00;;;;;22.00;56.34;100932.81;5076111;27;46665;-56
2021/09/27 07:35:59;;;;;;;;;4.50;4.50;;;;;22.00;56.27;100927.53;5076217;27;45264;-53
2021/09/27 07:38:24;;;;;;;;;7.50;7.50;;;;;22.00;56.11;100929.31;5076252;27;45420;-56
2021/09/27 07:40:50;;;;;;;;;5.50;5.50;;;;;22.00;56.30;100924.03;5076421;27;45628;-51
2021/09/27 07:43:16;;;;;;;;;8.25;6.00;;;;;22.00;56.50;100918.75;5076210;27;47603;-55
2021/09/27 07:45:42;;;;;;;;;7.00;5.75;;;;;22.01;56.36;100925.72;5076032;27;45469;-53
2021/09/27 07:48:13;;;;;;;;;5.25;5.25;;;;;21.99;56.50;100935.56;5076130;27;45409;-55
2021/09/27 07:50:41;;;;;;;;;6.50;6.00;;;;;21.99;56.39;100925.84;5076266;27;45373;-56
2021/09/27 07:53:06;;;;;;;;;8.75;7.50;;;;;22.00;56.21;100918.75;5076038;27;45587;-55
2021/09/27 07:55:32;;;;;;;;;5.00;5.00;;;;;21.99;56.49;100927.63;5074612;28;45330;-52
2021/09/27 07:57:57;;;;;;;;;6.00;6.00;;;;;21.98;56.38;100928.56;5075938;28;45407;-56
2021/09/27 08:00:23;;;;;;;;;8.00;8.00;;;;;21.99;56.32;100923.19;5075929;27;45305;-54
2021/09/27 08:02:49;;;;;;;;;7.00;6.00;;;;;21.98;56.58;100926.78;5078544;27;45554;-50
2021/09/27 08:05:18;;;;;;;;;4.75;4.75;;;;;21.99;56.51;100922.34;5079517;27;45396;-55
2021/09/27 08:07:44;;;;;;;;;7.25;6.25;;;;;21.99;56.61;100936.38;5078313;28;45354;-54
2021/09/27 08:10:10;;;;;;;;;9.25;6.75;;;;;21.99;56.58;100922.34;5095222;27;45327;-53
2021/09/27 08:12:37;;;;;;;;;7.50;6.25;;;;;21.99;56.17;100922.34;5078847;27;45574;-54
2021/09/27 08:15:13;;;;;;;;;7.00;6.00;;;;;21.98;56.82;100926.78;5079130;27;45885;-54
2021/09/27 08:17:40;;;;;;;;;5.75;5.50;;;;;21.98;56.70;100929.41;5079448;27;45509;-54
2021/09/27 08:20:10;;;;;;;;;5.75;5.75;;;;;21.99;56.57;100938.19;5079399;28;45445;-53
2021/09/27 08:22:36;;;;;;;;;6.00;5.00;;;;;21.97;56.65;100942.72;5078780;27;46959;-55
2021/09/27 08:25:05;;;;;;;;;6.00;6.00;;;;;21.99;56.66;100946.09;5078886;27;45322;-56
2021/09/27 08:27:30;;;;;;;;;7.25;6.75;;;;;21.97;56.53;100932.97;5094711;27;45350;-56
2021/09/27 08:29:56;;;;;;;;;7.00;6.75;;;;;21.98;56.70;100924.13;5079256;27;45337;-55
2021/09/27 08:32:21;;;;;;;;;5.00;5.00;;;;;21.97;56.75;100932.16;5078659;27;46144;-55
2021/09/27 08:34:49;;;;;;;;;7.00;7.00;;;;;21.95;56.72;100932.22;5079112;27;45292;-55
2021/09/27 08:37:14;;;;;;;;;5.50;5.50;;;;;21.98;56.70;100932.03;5094930;27;45272;-56
2021/09/27 08:39:40;;;;;;;;;5.50;4.75;;;;;21.99;56.62;100925.84;5079121;28;45347;-59
2021/09/27 08:42:12;;;;;;;;;6.25;6.25;;;;;21.99;56.76;100914.44;5078651;27;46699;-56
2021/09/27 08:44:56;;;;;;;;;7.50;6.75;;;;;21.99;56.73;100922.34;5078615;28;45706;-54
2021/09/27 08:47:34;;;;;;;;;9.75;7.25;;;;;21.99;56.55;100917.91;5094345;27;45298;-56
2021/09/27 08:50:37;;;;;;;;;8.25;7.00;;;;;21.98;56.50;100920.66;5078818;27;45609;-54
2021/09/27 08:53:24;;;;;;;;;8.00;7.00;;;;;22.00;56.82;100931.94;5071894;27;45522;-56
2021/09/27 08:55:52;;;;;;;;;6.50;6.50;;;;;21.99;56.33;100911.81;5078722;28;46152;-53
2021/09/27 08:58:31;;;;;;;;;7.25;7.25;;;;;21.99;56.75;100917.09;5078934;28;45350;-54
2021/09/27 09:01:02;;;;;;;;;8.75;8.25;;;;;21.99;56.89;100922.34;5078658;27;45413;-56
2021/09/27 09:03:46;;;;;;;;;8.75;6.75;;;;;22.00;56.79;100913.47;5078438;27;46284;-55
2021/09/27 09:06:29;;;;;;;;;7.50;7.50;;;;;21.99;56.87;100893.31;5078292;28;45912;-56
2021/09/27 09:09:05;;;;;;;;;7.25;7.25;;;;;21.98;56.77;100889.81;5078263;27;45352;-54
2021/09/27 09:11:56;;;;;;;;;11.00;8.50;;;;;21.99;56.67;100901.25;5078579;27;45793;-56
2021/09/27 09:14:40;;;;;;;;;6.75;6.50;;;;;22.00;56.86;100905.56;5077650;27;46257;-53
2021/09/27 09:17:32;;;;;;;;;5.50;5.00;;;;;22.00;56.92;100916.97;5078183;27;45893;-55
2021/09/27 09:20:01;;;;;;;;;5.75;5.75;;;;;21.98;56.80;100900.38;5078369;27;45416;-56
2021/09/27 09:22:33;;;;;;;;;8.25;7.25;;;;;22.00;56.89;100909.06;5078418;27;45225;-55
2021/09/27 09:24:59;;;;;;;;;6.50;6.00;;;;;22.00;56.75;100913.47;5077929;27;45469;-55
2021/09/27 09:27:25;;;;;;;;;5.00;5.00;;;;;22.00;56.97;100910.84;5093794;27;45388;-56
2021/09/27 09:29:55;;;;;;;;;6.50;6.50;;;;;22.00;56.99;100897.63;5078472;27;45365;-54
2021/09/27 09:32:20;;;;;;;;;7.00;7.00;;;;;21.99;57.13;100894.16;5078448;27;45501;-55
2021/09/27 09:34:48;;;;;;;;;6.00;6.00;;;;;21.99;56.91;100878.34;5077906;28;46484;-55
2021/09/27 09:37:37;;;;;;;;;8.00;7.00;;;;;22.00;56.99;100881.81;5077790;28;45420;-54
2021/09/27 09:40:15;;;;;;;;;6.25;6.25;;;;;21.99;57.01;100885.41;5077889;28;45361;-54
2021/09/27 09:42:54;;;;;;;;;8.25;6.00;;;;;22.01;57.02;100891.41;5078254;27;45582;-54
2021/09/27 09:45:25;;;;;;;;;9.50;8.25;;;;;22.01;57.18;100901.97;5078034;27;45464;-53
2021/09/27 09:47:50;;;;;;;;;7.25;6.00;;;;;22.03;56.96;100897.47;5078184;27;45386;-55
2021/09/27 09:50:21;;;;;;;;;7.75;6.00;;;;;22.04;57.10;100901.78;5077771;27;45355;-53
2021/09/27 09:52:49;;;;;;;;;6.25;6.25;;;;;22.05;56.96;100912.25;5078044;27;45303;-56
2021/09/27 09:55:42;;;;;;;;;7.50;6.25;;;;;22.06;57.08;100918.41;5077570;27;45661;-52
2021/09/27 09:58:38;;;;;;;;;8.00;8.00;;;;;22.06;57.18;100918.41;5077344;27;45837;-53
2021/09/27 10:01:21;;;;;;;;;8.50;6.50;;;;;22.05;57.56;100919.34;5073877;27;45241;-54
2021/09/27 10:03:59;;;;;;;;;6.00;6.00;;;;;22.05;56.84;100912.25;5077967;27;45422;-53
2021/09/27 10:06:37;;;;;;;;;6.00;6.00;;;;;22.08;56.99;100913.88;5077375;27;45420;-55
2021/09/27 10:09:07;;;;;;;;;8.00;7.00;;;;;22.07;56.92;100909.53;5077390;27;45394;-57
2021/09/27 10:11:44;;;;;;;;;8.00;6.00;;;;;22.07;56.91;100910.38;5110342;27;45281;-56
2021/09/27 10:14:21;;;;;;;;;7.00;6.00;;;;;22.08;57.04;100913.88;5077552;27;45178;-54
2021/09/27 10:17:39;;;;;;;;;6.00;6.00;;;;;22.09;57.05;100924.34;5077156;27;46497;-54
2021/09/27 10:20:11;;;;;;;;;7.75;6.00;;;;;22.09;56.71;100923.50;5074936;28;45386;-55
2021/09/27 10:22:39;;;;;;;;;7.75;6.75;;;;;22.10;57.05;100904.09;5077458;27;45307;-55
2021/09/27 10:25:32;;;;;;;;;8.75;7.00;;;;;22.09;57.02;100916.41;5076670;27;45526;-56
2021/09/27 10:28:01;;;;;;;;;7.25;6.00;;;;;22.09;57.05;100902.38;5076941;28;45464;-53
2021/09/27 10:30:40;;;;;;;;;6.25;6.00;;;;;22.11;57.15;100910.19;5076978;27;45460;-55
2021/09/27 10:33:24;;;;;;;;;7.00;7.00;;;;;22.09;56.89;100923.50;5092669;27;45235;-57
2021/09/27 10:35:52;;;;;;;;;7.00;6.25;;;;;22.10;57.09;100919.91;5077635;28;45231;-55
2021/09/27 10:38:30;;;;;;;;;6.75;6.75;;;;;22.10;57.32;100906.72;5076895;27;46508;-58
2021/09/27 10:41:02;;;;;;;;;6.00;6.00;;;;;22.07;57.04;100915.66;5076886;27;46042;-55
2021/09/27 10:43:29;;;;;;;;;6.25;6.25;;;;;22.08;57.19;100938.47;5075613;28;45345;-56
2021/09/27 10:46:01;;;;;;;;;10.50;7.25;;;;;22.09;57.16;100928.78;5077346;27;45326;-54
2021/09/27 10:48:29;;;;;;;;;5.75;5.75;;;;;22.09;57.12;100934.06;5076802;27;45516;-55
2021/09/27 10:51:00;;;;;;;;;4.00;4.00;;;;;22.10;57.01;100930.47;5076810;27;45879;-56
2021/09/27 10:53:28;;;;;;;;;8.75;6.00;;;;;22.11;57.46;100932.16;5076958;28;45323;-54
2021/09/27 10:56:00;;;;;;;;;5.00;5.00;;;;;22.09;57.29;100923.50;5077119;27;45561;-56
2021/09/27 10:58:35;;;;;;;;;5.75;5.75;;;;;22.11;57.09;100926.88;5076768;28;45513;-51
2021/09/27 11:01:01;;;;;;;;;7.25;6.75;;;;;22.11;57.11;100926.88;5076596;27;45489;-56
2021/09/27 11:03:33;;;;;;;;;5.50;5.50;;;;;22.13;57.22;100927.63;5076863;27;45417;-56
2021/09/27 11:06:21;;;;;;;;;5.75;5.75;;;;;22.12;57.14;100933.84;5076994;27;45386;-57
2021/09/27 11:08:54;;;;;;;;;5.50;5.50;;;;;22.13;57.30;100951.38;5076570;28;45633;-54
2021/09/27 11:11:28;;;;;;;;;7.00;6.00;;;;;22.13;57.67;100943.47;5076422;27;45263;-55
2021/09/27 11:14:00;;;;;;;;;8.00;6.00;;;;;22.12;57.39;100939.13;5077049;28;45349;-59
2021/09/27 11:16:35;;;;;;;;;5.50;5.00;;;;;22.12;57.42;100946.22;5077094;27;45448;-56
2021/09/27 11:19:29;;;;;;;;;6.25;6.25;;;;;22.12;57.33;100944.41;5076360;27;45449;-59
2021/09/27 11:21:55;;;;;;;;;5.00;5.00;;;;;22.12;57.55;100940.94;5076791;27;45751;-58
2021/09/27 11:24:43;;;;;;;;;7.00;7.00;;;;;22.10;57.55;100935.75;5076511;27;45279;-59
2021/09/27 11:27:29;;;;;;;;;6.50;6.50;;;;;22.12;57.71;100991.91;5076704;27;45545;-56
2021/09/27 11:30:17;;;;;;;;;6.00;6.00;;;;;22.11;57.57;101063.28;5076681;28;46507;-58
2021/09/27 11:32:50;;;;;;;;;7.50;6.00;;;;;22.12;57.51;101065.81;5076215;28;45801;-57
2021/09/27 11:35:21;;;;;;;;;7.25;6.75;;;;;22.13;57.56;101067.53;5076333;27;45235;-59
2021/09/27 11:37:47;;;;;;;;;5.50;5.50;;;;;22.15;57.39;101059.53;5079127;27;45561;-56
2021/09/27 11:40:21;;;;;;;;;7.00;6.00;;;;;22.15;57.39;101070.94;5079800;27;45709;-54
2021/09/27 11:43:14;;;;;;;;;6.00;6.00;;;;;22.15;57.00;101070.09;5079613;27;45605;-54
2021/09/27 11:46:08;;;;;;;;;3.50;3.50;;;;;22.17;56.80;101084.91;5079659;27;45385;-54
2021/09/27 11:48:42;;;;;;;;;3.00;3.00;;;;;22.16;56.84;101083.19;5064091;27;45436;-54
2021/09/27 11:51:07;;;;;;;;;3.50;3.00;;;;;22.15;56.72;101078.84;5079319;27;45450;-55
2021/09/27 11:53:35;;;;;;;;;3.00;3.00;;;;;22.16;56.56;101087.66;5079458;27;45438;-56
2021/09/27 11:56:08;;;;;;;;;4.50;4.50;;;;;22.16;56.31;101079.72;5079596;28;45339;-55
2021/09/27 11:58:53;;;;;;;;;2.00;2.00;;;;;22.15;56.18;101086.78;5079724;27;45359;-56
2021/09/27 12:01:38;;;;;;;;;3.75;3.75;;;;;22.16;56.05;101092.94;5079089;27;47510;-56
2021/09/27 12:04:15;;;;;;;;;2.25;2.25;;;;;22.16;55.98;101099.03;5079492;27;45405;-55
2021/09/27 12:06:45;;;;;;;;;2.75;2.50;;;;;22.15;55.80;101105.25;5079469;27;45425;-55